Time;durP1;ratioP1;P1;durP2;ratioP2;P2;SDS_P1;SDS_P2;PMS_P1;PMS_P2;Temp;Humidity;BMP_temperature;BMP_pressure;BME280_temperature;BME280_humidity;BME280_pressure;Samples;Min_cycle;Max_cycle;Signal;HPM_P1;HPM_P2
2022/02/23 00:01:24;;;;;;;7.55;2.28;;;8.30;95.60;;;;;;4862717;29;20283;-75
2022/02/23 00:03:51;;;;;;;4.97;1.60;;;8.20;96.20;;;;;;4864216;29;20624;-76
2022/02/23 00:06:19;;;;;;;4.35;1.98;;;8.20;96.40;;;;;;4863862;29;20679;-77
2022/02/23 00:08:46;;;;;;;5.45;1.38;;;8.30;97.20;;;;;;4864248;29;20213;-76
2022/02/23 00:11:13;;;;;;;7.43;2.90;;;8.30;97.70;;;;;;4863437;29;20254;-75
2022/02/23 00:13:40;;;;;;;4.90;2.40;;;8.30;98.20;;;;;;4864498;29;20212;-75
2022/02/23 00:16:07;;;;;;;9.13;1.70;;;8.30;98.90;;;;;;4863533;29;20292;-76
2022/02/23 00:18:35;;;;;;;4.80;2.03;;;8.20;99.50;;;;;;4863666;29;20217;-76
2022/02/23 00:21:02;;;;;;;5.53;1.80;;;8.20;99.90;;;;;;4863760;29;20282;-77
2022/02/23 00:23:29;;;;;;;3.63;2.00;;;8.30;99.90;;;;;;4863834;29;20609;-76
2022/02/23 00:25:56;;;;;;;11.10;1.88;;;8.20;99.50;;;;;;4863732;29;20240;-76
2022/02/23 00:28:23;;;;;;;5.72;1.92;;;8.20;99.30;;;;;;4864067;29;20284;-76
2022/02/23 00:30:50;;;;;;;5.85;1.75;;;8.30;99.40;;;;;;4876224;29;20250;-75
2022/02/23 00:33:17;;;;;;;3.40;1.98;;;8.20;99.20;;;;;;4877064;29;20239;-76
2022/02/23 00:35:45;;;;;;;6.45;2.30;;;8.20;99.00;;;;;;4866470;29;20219;-75
2022/02/23 00:38:12;;;;;;;5.97;2.35;;;8.20;99.20;;;;;;4865314;29;20707;-76
2022/02/23 00:40:39;;;;;;;5.55;2.53;;;8.20;99.00;;;;;;4867366;29;20277;-77
2022/02/23 00:43:06;;;;;;;6.32;2.55;;;8.30;99.30;;;;;;4866905;29;20247;-75
2022/02/23 00:45:33;;;;;;;4.13;2.10;;;8.30;99.30;;;;;;4864796;29;20217;-77
2022/02/23 00:48:01;;;;;;;7.07;2.20;;;8.30;99.50;;;;;;4863185;29;20307;-75
2022/02/23 00:50:28;;;;;;;9.90;2.20;;;8.30;99.80;;;;;;4863926;29;20239;-76
2022/02/23 00:52:56;;;;;;;9.20;2.30;;;8.20;99.90;;;;;;4863367;29;20567;-76
2022/02/23 00:55:23;;;;;;;6.53;1.92;;;8.20;99.90;;;;;;4863464;29;20642;-76
2022/02/23 00:57:50;;;;;;;7.20;2.22;;;8.20;99.90;;;;;;4863359;29;20276;-76
2022/02/23 01:00:18;;;;;;;16.13;3.08;;;8.20;99.90;;;;;;4864115;29;20221;-75
2022/02/23 01:02:45;;;;;;;7.78;2.40;;;8.20;99.90;;;;;;4868715;29;20256;-76
2022/02/23 01:05:12;;;;;;;6.65;2.45;;;8.20;99.90;;;;;;4869843;29;20683;-75
2022/02/23 01:07:39;;;;;;;3.42;2.10;;;8.20;99.90;;;;;;4867336;29;20218;-76
2022/02/23 01:10:09;;;;;;;6.20;2.50;;;8.20;99.90;;;;;;4862971;29;20226;-76
2022/02/23 01:12:36;;;;;;;4.90;2.33;;;8.20;99.90;;;;;;4863582;29;20227;-77
2022/02/23 01:15:04;;;;;;;5.45;2.20;;;8.20;99.90;;;;;;4866525;29;20670;-75
2022/02/23 01:17:31;;;;;;;3.78;2.10;;;8.10;99.90;;;;;;4866562;29;20678;-75
2022/02/23 01:19:58;;;;;;;8.55;2.50;;;8.20;99.90;;;;;;4863493;29;20222;-76
2022/02/23 01:22:25;;;;;;;6.13;2.55;;;8.20;99.90;;;;;;4878363;23;20330;-71
2022/02/23 01:24:52;;;;;;;6.88;2.20;;;8.20;99.90;;;;;;4865647;29;20516;-71
2022/02/23 01:27:20;;;;;;;3.33;1.13;;;8.30;99.90;;;;;;4863073;29;20225;-71
2022/02/23 01:29:47;;;;;;;0.95;0.85;;;8.10;96.20;;;;;;4861268;29;20213;-71
2022/02/23 01:32:14;;;;;;;1.85;1.20;;;7.80;91.80;;;;;;4861198;29;20273;-70
2022/02/23 01:34:41;;;;;;;2.40;1.10;;;7.60;91.10;;;;;;4861650;29;20229;-70
2022/02/23 01:37:08;;;;;;;6.57;1.10;;;7.40;91.50;;;;;;4861773;29;20223;-70
2022/02/23 01:39:35;;;;;;;4.05;1.00;;;7.40;92.50;;;;;;4861308;29;20230;-71
2022/02/23 01:42:02;;;;;;;2.85;1.05;;;7.30;93.20;;;;;;4862273;29;20318;-71
2022/02/23 01:44:30;;;;;;;1.35;0.90;;;7.20;93.90;;;;;;4868572;29;20223;-70
2022/02/23 01:46:57;;;;;;;2.80;1.13;;;7.20;94.20;;;;;;4866583;29;20211;-70
2022/02/23 01:49:24;;;;;;;6.38;1.05;;;7.10;95.10;;;;;;4876580;29;20214;-70
2022/02/23 01:51:51;;;;;;;2.75;1.00;;;7.20;96.80;;;;;;4866538;29;20230;-70
2022/02/23 01:54:18;;;;;;;2.50;1.02;;;7.20;97.80;;;;;;4862495;29;20738;-70
2022/02/23 01:56:45;;;;;;;5.05;1.35;;;7.20;99.10;;;;;;4862638;29;20246;-70
2022/02/23 01:59:12;;;;;;;1.90;1.02;;;7.20;99.70;;;;;;4862423;29;20210;-70
2022/02/23 02:01:40;;;;;;;5.57;1.10;;;7.20;99.90;;;;;;4863259;29;20201;-71
2022/02/23 02:04:07;;;;;;;1.15;0.98;;;7.20;99.90;;;;;;4863243;29;20642;-71
2022/02/23 02:06:34;;;;;;;2.92;1.20;;;7.30;99.90;;;;;;4863734;29;20257;-70
2022/02/23 02:09:01;;;;;;;3.40;1.00;;;7.30;99.90;;;;;;4863281;29;20208;-70
2022/02/23 02:11:28;;;;;;;3.30;1.42;;;7.40;99.90;;;;;;4864542;29;20241;-71
2022/02/23 02:13:55;;;;;;;1.23;1.10;;;7.40;99.90;;;;;;4865936;29;20242;-71
2022/02/23 02:16:21;;;;;;;2.63;1.10;;;7.50;99.90;;;;;;4874038;29;20222;-71
2022/02/23 02:18:50;;;;;;;5.88;1.42;;;7.50;99.90;;;;;;4872054;29;20211;-71
2022/02/23 02:21:16;;;;;;;2.58;1.00;;;7.50;99.90;;;;;;4875540;29;20240;-71
2022/02/23 02:23:45;;;;;;;3.70;1.70;;;7.50;99.90;;;;;;4861230;29;20234;-71
2022/02/23 02:26:12;;;;;;;5.45;1.40;;;7.40;99.90;;;;;;4861489;29;20300;-71
2022/02/23 02:28:39;;;;;;;5.60;1.52;;;7.30;99.90;;;;;;4862490;29;20247;-72
2022/02/23 02:31:09;;;;;;;3.95;1.48;;;7.40;99.90;;;;;;4862190;29;20575;-72
2022/02/23 02:33:36;;;;;;;3.10;1.15;;;7.30;99.90;;;;;;4861984;29;20741;-71
2022/02/23 02:36:03;;;;;;;2.15;1.10;;;7.30;99.90;;;;;;4862732;29;20300;-71
2022/02/23 02:38:30;;;;;;;5.10;1.33;;;7.20;99.90;;;;;;4861790;29;20223;-71
2022/02/23 02:40:58;;;;;;;5.78;2.17;;;7.20;99.90;;;;;;4860097;29;20205;-71
2022/02/23 02:43:25;;;;;;;2.47;1.15;;;7.10;99.90;;;;;;4860295;29;20252;-71
2022/02/23 02:45:52;;;;;;;2.22;1.40;;;7.10;99.90;;;;;;4860263;29;20206;-71
2022/02/23 02:48:19;;;;;;;1.90;1.20;;;7.20;99.90;;;;;;4862297;29;20229;-71
2022/02/23 02:50:46;;;;;;;1.45;1.00;;;7.20;99.90;;;;;;4862690;29;20562;-72
2022/02/23 02:53:12;;;;;;;1.63;1.10;;;7.20;99.90;;;;;;4863188;29;20325;-72
2022/02/23 02:55:39;;;;;;;2.38;1.40;;;7.20;99.90;;;;;;4865888;29;20217;-71
2022/02/23 02:58:09;;;;;;;1.13;1.02;;;7.30;99.90;;;;;;4872667;29;20274;-72
2022/02/23 03:00:36;;;;;;;6.15;1.92;;;7.20;99.90;;;;;;4877848;29;20236;-71
2022/02/23 03:03:03;;;;;;;1.42;1.33;;;7.20;99.90;;;;;;4864870;29;20242;-73
2022/02/23 03:05:31;;;;;;;4.68;1.60;;;7.20;99.90;;;;;;4866975;29;20278;-72
2022/02/23 03:07:58;;;;;;;3.92;1.58;;;7.10;99.90;;;;;;4863357;29;20222;-72
2022/02/23 03:10:25;;;;;;;3.60;1.65;;;7.10;99.90;;;;;;4863706;29;20593;-72
2022/02/23 03:12:52;;;;;;;2.25;1.55;;;7.10;99.90;;;;;;4863460;29;20269;-72
2022/02/23 03:15:20;;;;;;;4.82;1.48;;;7.10;99.90;;;;;;4863648;29;20347;-73
2022/02/23 03:17:47;;;;;;;1.67;1.13;;;7.20;99.90;;;;;;4866366;29;20230;-72
2022/02/23 03:20:14;;;;;;;2.55;1.48;;;7.20;99.90;;;;;;4869103;29;20230;-72
2022/02/23 03:22:41;;;;;;;4.10;1.35;;;7.20;99.90;;;;;;4868421;29;20387;-69
2022/02/23 03:25:08;;;;;;;3.97;2.03;;;7.20;99.90;;;;;;4871086;29;20730;-71
2022/02/23 03:27:35;;;;;;;2.45;1.17;;;7.10;99.90;;;;;;4864388;29;20292;-71
2022/02/23 03:30:02;;;;;;;2.50;1.33;;;7.10;99.90;;;;;;4864341;29;20211;-71
2022/02/23 03:32:30;;;;;;;2.25;1.23;;;7.20;99.90;;;;;;4863727;29;20245;-72
2022/02/23 03:34:57;;;;;;;3.70;1.70;;;7.20;99.90;;;;;;4863675;29;20268;-70
2022/02/23 03:37:24;;;;;;;1.60;1.00;;;7.20;99.90;;;;;;4863325;29;20211;-71
2022/02/23 03:39:51;;;;;;;8.77;2.05;;;7.20;99.90;;;;;;4863750;29;20274;-71
2022/02/23 03:42:18;;;;;;;3.78;1.40;;;7.10;99.90;;;;;;4864620;29;20298;-70
2022/02/23 03:44:45;;;;;;;1.92;1.17;;;7.10;99.90;;;;;;4871885;29;20250;-71
2022/02/23 03:47:12;;;;;;;4.47;1.27;;;7.10;99.90;;;;;;4871634;29;20214;-71
2022/02/23 03:49:40;;;;;;;8.18;1.98;;;7.10;99.90;;;;;;4867364;29;20676;-70
2022/02/23 03:52:08;;;;;;;2.95;1.50;;;7.20;99.90;;;;;;4864245;29;20239;-71
2022/02/23 03:54:35;;;;;;;2.92;1.45;;;7.10;99.90;;;;;;4863763;29;20581;-71
2022/02/23 03:57:01;;;;;;;3.40;1.50;;;7.10;99.90;;;;;;4863814;29;20210;-71
2022/02/23 03:59:28;;;;;;;1.88;1.40;;;7.00;99.90;;;;;;4864539;29;20685;-71
2022/02/23 04:01:55;;;;;;;2.28;1.38;;;7.10;99.90;;;;;;4864556;29;20301;-70
2022/02/23 04:04:22;;;;;;;4.88;1.63;;;7.10;99.90;;;;;;4870390;29;20324;-71
2022/02/23 04:06:51;;;;;;;3.50;2.13;;;7.10;99.90;;;;;;4871996;29;20221;-71
2022/02/23 04:09:18;;;;;;;5.88;1.60;;;7.10;99.90;;;;;;4871703;29;20729;-71
2022/02/23 04:11:45;;;;;;;4.32;1.65;;;7.10;99.90;;;;;;4872827;29;20290;-71
2022/02/23 04:14:13;;;;;;;5.78;1.80;;;7.00;99.90;;;;;;4864869;29;20224;-70
2022/02/23 04:16:39;;;;;;;4.68;2.00;;;6.90;99.90;;;;;;4862375;29;20210;-71
2022/02/23 04:19:06;;;;;;;4.32;1.95;;;6.90;99.90;;;;;;4861686;29;20215;-73
2022/02/23 04:21:34;;;;;;;5.18;1.98;;;6.80;99.90;;;;;;4861171;29;20238;-71
2022/02/23 04:24:02;;;;;;;4.43;1.92;;;6.80;99.90;;;;;;4861182;29;20242;-71
2022/02/23 04:26:30;;;;;;;3.95;2.35;;;6.80;99.90;;;;;;4861250;29;20583;-70
2022/02/23 04:28:56;;;;;;;3.70;2.22;;;6.80;99.90;;;;;;4861104;29;20218;-72
2022/02/23 04:31:23;;;;;;;4.57;2.13;;;6.80;99.90;;;;;;4859913;29;20635;-70
2022/02/23 04:33:50;;;;;;;7.25;2.58;;;6.70;99.90;;;;;;4861228;29;20230;-71
2022/02/23 04:36:17;;;;;;;6.03;2.45;;;6.80;99.90;;;;;;4860124;29;20531;-75
2022/02/23 04:38:44;;;;;;;7.10;3.67;;;6.80;99.90;;;;;;4860779;29;20576;-70
2022/02/23 04:41:12;;;;;;;4.05;2.80;;;6.70;99.90;;;;;;4859666;29;20210;-71
2022/02/23 04:43:39;;;;;;;6.53;2.67;;;6.70;99.90;;;;;;4861036;29;20254;-70
2022/02/23 04:46:10;;;;;;;3.55;2.42;;;6.70;99.90;;;;;;4852551;29;20303;-71
2022/02/23 04:48:37;;;;;;;4.28;2.50;;;6.70;99.90;;;;;;4855352;29;20752;-71
2022/02/23 04:51:04;;;;;;;6.30;3.15;;;6.70;99.90;;;;;;4861946;29;20301;-71
2022/02/23 04:53:31;;;;;;;5.40;2.70;;;6.70;99.90;;;;;;4861372;29;20242;-71
2022/02/23 04:55:58;;;;;;;2.97;2.63;;;6.60;99.90;;;;;;4861429;29;20211;-71
2022/02/23 04:58:27;;;;;;;6.03;3.25;;;6.60;99.90;;;;;;4860957;29;20213;-71
2022/02/23 05:00:54;;;;;;;5.72;2.50;;;6.50;99.90;;;;;;4860812;29;20676;-70
2022/02/23 05:03:20;;;;;;;6.60;3.30;;;6.50;99.90;;;;;;4861823;29;20257;-71
2022/02/23 05:05:49;;;;;;;6.00;3.03;;;6.40;99.90;;;;;;4863507;29;20246;-72
2022/02/23 05:08:17;;;;;;;6.55;3.33;;;6.40;99.90;;;;;;4863530;29;20210;-70
2022/02/23 05:10:44;;;;;;;5.97;3.60;;;6.40;99.90;;;;;;4862280;29;20582;-71
2022/02/23 05:13:11;;;;;;;6.93;3.70;;;6.50;99.90;;;;;;4863025;29;20599;-70
2022/02/23 05:15:40;;;;;;;4.40;3.00;;;6.40;99.90;;;;;;4864256;29;20237;-71
2022/02/23 05:18:07;;;;;;;10.48;3.92;;;6.40;99.90;;;;;;4861989;29;20214;-71
2022/02/23 05:20:34;;;;;;;8.75;4.13;;;6.40;99.90;;;;;;4860190;29;20285;-71
2022/02/23 05:23:01;;;;;;;9.18;4.25;;;6.40;99.90;;;;;;4859983;29;20301;-70
2022/02/23 05:25:28;;;;;;;5.15;3.75;;;6.40;99.90;;;;;;4860187;29;20270;-71
2022/02/23 05:27:55;;;;;;;10.25;4.18;;;6.30;99.90;;;;;;4861274;29;20599;-72
2022/02/23 05:30:22;;;;;;;9.32;4.43;;;6.40;99.90;;;;;;4861631;29;20301;-70
2022/02/23 05:32:51;;;;;;;9.00;3.97;;;6.30;99.90;;;;;;4861222;29;20243;-71
2022/02/23 05:35:18;;;;;;;6.93;3.95;;;6.30;99.90;;;;;;4862372;29;20312;-71
2022/02/23 05:37:45;;;;;;;5.43;3.70;;;6.30;99.90;;;;;;4866920;29;20280;-70
2022/02/23 05:40:12;;;;;;;5.78;3.55;;;6.30;99.90;;;;;;4865241;29;20258;-70
2022/02/23 05:42:39;;;;;;;9.60;3.95;;;6.30;99.90;;;;;;4860285;29;20234;-70
2022/02/23 05:45:06;;;;;;;6.70;3.40;;;6.30;99.90;;;;;;4860548;29;20697;-71
2022/02/23 05:47:33;;;;;;;7.13;4.35;;;6.20;99.90;;;;;;4860533;29;20214;-70
2022/02/23 05:50:02;;;;;;;8.30;4.60;;;6.20;99.90;;;;;;4860498;29;20313;-72
2022/02/23 05:52:29;;;;;;;6.32;4.20;;;6.10;99.90;;;;;;4860429;29;20663;-70
2022/02/23 05:54:57;;;;;;;5.18;3.97;;;6.20;99.90;;;;;;4860542;29;20652;-70
2022/02/23 05:57:24;;;;;;;6.00;4.35;;;6.10;99.90;;;;;;4860964;29;20210;-71
2022/02/23 05:59:51;;;;;;;5.90;4.03;;;6.00;99.90;;;;;;4861276;29;20524;-71
2022/02/23 06:02:18;;;;;;;4.07;3.70;;;6.10;99.90;;;;;;4860550;29;20231;-70
2022/02/23 06:04:44;;;;;;;7.53;4.35;;;6.10;99.90;;;;;;4860478;29;20219;-70
2022/02/23 06:07:13;;;;;;;7.22;4.10;;;6.10;99.90;;;;;;4860439;29;20218;-72
2022/02/23 06:09:40;;;;;;;8.35;4.25;;;5.90;99.90;;;;;;4865949;29;20285;-71
2022/02/23 06:12:08;;;;;;;11.88;5.55;;;5.90;99.90;;;;;;4866574;29;20231;-73
2022/02/23 06:14:35;;;;;;;9.93;4.85;;;6.00;99.90;;;;;;4861555;29;20214;-74
2022/02/23 06:17:02;;;;;;;10.40;5.10;;;6.00;99.90;;;;;;4861252;29;20285;-73
2022/02/23 06:19:28;;;;;;;9.73;4.72;;;6.20;99.90;;;;;;4861321;29;20210;-74
2022/02/23 06:21:55;;;;;;;8.52;4.72;;;6.20;99.90;;;;;;4862400;29;20218;-74
2022/02/23 06:24:24;;;;;;;7.22;4.72;;;6.20;99.90;;;;;;4864444;29;20235;-74
2022/02/23 06:26:51;;;;;;;5.88;4.00;;;6.30;99.90;;;;;;4867748;29;20266;-75
2022/02/23 06:29:18;;;;;;;6.15;4.47;;;6.30;99.90;;;;;;4871607;29;20644;-73
2022/02/23 06:31:57;;;;;;;9.13;5.38;;;6.40;99.90;;;;;;4879170;29;20210;-73
2022/02/23 06:34:24;;;;;;;9.27;5.15;;;6.30;99.90;;;;;;4881870;29;20233;-73
2022/02/23 06:36:51;;;;;;;7.45;5.22;;;6.40;99.90;;;;;;4866079;29;20297;-73
2022/02/23 06:39:20;;;;;;;11.15;5.20;;;6.50;99.90;;;;;;4865263;29;20278;-73
2022/02/23 06:41:49;;;;;;;7.20;5.15;;;6.60;99.90;;;;;;4863921;29;20214;-73
2022/02/23 06:44:20;;;;;;;8.18;5.90;;;6.70;99.90;;;;;;4864059;29;20206;-74
2022/02/23 06:46:48;;;;;;;13.05;6.20;;;6.80;99.90;;;;;;4865653;29;20250;-74
2022/02/23 06:49:14;;;;;;;9.85;6.43;;;6.80;99.90;;;;;;4864387;29;20278;-74
2022/02/23 06:51:42;;;;;;;5.90;5.30;;;6.80;99.90;;;;;;4865588;29;20260;-74
2022/02/23 06:54:09;;;;;;;7.53;5.32;;;6.80;99.90;;;;;;4868286;29;20270;-76
2022/02/23 06:56:36;;;;;;;6.78;5.20;;;6.80;99.90;;;;;;4872802;29;20315;-77
2022/02/23 06:59:05;;;;;;;6.65;5.60;;;6.80;99.90;;;;;;4872063;29;20241;-76
2022/02/23 07:01:34;;;;;;;11.32;5.20;;;6.90;99.90;;;;;;4867592;29;20241;-76
2022/02/23 07:04:01;;;;;;;15.45;6.10;;;6.90;99.90;;;;;;4866613;29;20726;-73
2022/02/23 07:06:28;;;;;;;11.65;5.88;;;6.90;99.90;;;;;;4867122;29;20249;-73
2022/02/23 07:08:55;;;;;;;9.00;6.10;;;6.90;99.90;;;;;;4870540;29;20241;-73
2022/02/23 07:11:25;;;;;;;9.60;5.90;;;6.90;99.90;;;;;;4878775;29;20229;-72
2022/02/23 07:13:52;;;;;;;9.68;5.72;;;6.80;99.90;;;;;;4880227;29;20233;-72
2022/02/23 07:16:23;;;;;;;10.20;5.95;;;6.80;99.90;;;;;;4882690;29;20213;-74
2022/02/23 07:18:50;;;;;;;11.55;5.45;;;6.80;99.90;;;;;;4872385;29;20612;-72
2022/02/23 07:21:17;;;;;;;11.43;5.32;;;6.90;99.90;;;;;;4878839;29;20218;-74
2022/02/23 07:23:44;;;;;;;10.50;5.32;;;6.90;99.90;;;;;;4880114;29;20237;-72
2022/02/23 07:26:11;;;;;;;9.13;6.45;;;7.00;99.90;;;;;;4877893;29;20313;-71
2022/02/23 07:28:39;;;;;;;9.40;5.13;;;7.00;99.90;;;;;;4864075;29;20211;-73
2022/02/23 07:31:07;;;;;;;8.40;6.43;;;7.10;99.90;;;;;;4862758;29;20712;-72
2022/02/23 07:33:36;;;;;;;9.40;5.50;;;7.30;99.90;;;;;;4862863;29;20243;-71
2022/02/23 07:36:04;;;;;;;8.75;5.72;;;7.40;99.90;;;;;;4863004;29;20302;-70
2022/02/23 07:38:31;;;;;;;13.00;5.97;;;7.40;99.90;;;;;;4862896;29;20218;-71
2022/02/23 07:40:58;;;;;;;9.75;7.13;;;7.50;99.90;;;;;;4862424;29;20214;-71
2022/02/23 07:43:25;;;;;;;12.52;5.80;;;7.50;99.90;;;;;;4863336;29;20576;-72
2022/02/23 07:45:53;;;;;;;10.52;6.70;;;7.60;99.90;;;;;;4861537;29;20589;-72
2022/02/23 07:48:21;;;;;;;12.10;6.22;;;7.70;99.90;;;;;;4863531;29;20248;-74
2022/02/23 07:50:49;;;;;;;9.32;5.47;;;7.70;99.90;;;;;;4862379;29;20232;-72
2022/02/23 07:53:16;;;;;;;8.55;5.10;;;7.80;99.90;;;;;;4862669;29;20243;-71
2022/02/23 07:55:43;;;;;;;7.10;5.18;;;7.80;99.90;;;;;;4862454;29;20307;-72
2022/02/23 07:58:10;;;;;;;9.65;5.15;;;7.90;99.90;;;;;;4862534;29;20205;-72
2022/02/23 08:00:39;;;;;;;8.52;4.60;;;8.00;99.90;;;;;;4862859;29;20239;-73
2022/02/23 08:03:07;;;;;;;9.52;5.30;;;8.10;99.90;;;;;;4862430;29;20255;-72
2022/02/23 08:05:33;;;;;;;7.55;3.85;;;8.20;99.90;;;;;;4862572;29;20298;-73
2022/02/23 08:08:02;;;;;;;8.60;4.55;;;8.30;99.90;;;;;;4862834;29;20220;-72
2022/02/23 08:10:28;;;;;;;9.43;4.53;;;8.30;99.90;;;;;;4862633;29;20221;-72
2022/02/23 08:12:58;;;;;;;5.45;4.13;;;8.20;99.90;;;;;;4863480;29;20331;-71
2022/02/23 08:20:56;;;;;;;5.97;3.70;;;8.20;99.90;;;;;;4862927;29;20219;-71
2022/02/23 08:23:24;;;;;;;6.38;3.55;;;8.20;99.90;;;;;;4863377;29;20247;-73
2022/02/23 08:25:51;;;;;;;7.60;3.40;;;8.20;99.90;;;;;;4861782;29;20579;-71
2022/02/23 08:28:18;;;;;;;5.90;3.55;;;8.30;99.90;;;;;;4862039;29;20620;-71
2022/02/23 08:30:46;;;;;;;8.75;3.83;;;8.40;99.90;;;;;;4861922;29;20210;-72
2022/02/23 08:33:13;;;;;;;10.80;3.50;;;8.40;99.90;;;;;;4862083;29;20235;-72
2022/02/23 08:35:40;;;;;;;4.63;3.25;;;8.30;99.90;;;;;;4862050;29;20209;-70
2022/02/23 08:38:11;;;;;;;5.25;3.20;;;8.30;99.40;;;;;;4862141;29;20628;-72
2022/02/23 08:40:40;;;;;;;5.78;4.22;;;8.30;98.80;;;;;;4862584;29;20290;-72
2022/02/23 08:43:07;;;;;;;5.25;3.40;;;8.40;98.20;;;;;;4862705;29;20250;-73
2022/02/23 08:45:34;;;;;;;5.35;3.47;;;8.50;97.30;;;;;;4861421;29;20216;-73
2022/02/23 08:48:02;;;;;;;5.60;3.20;;;8.50;96.70;;;;;;4863955;29;20221;-74
2022/02/23 08:50:29;;;;;;;10.82;4.03;;;8.60;95.70;;;;;;4875655;29;20216;-71
2022/02/23 08:52:56;;;;;;;9.70;4.30;;;8.70;94.80;;;;;;4874411;29;20296;-72
2022/02/23 08:55:23;;;;;;;6.85;3.90;;;8.80;93.70;;;;;;4882760;29;20246;-74
2022/02/23 08:57:51;;;;;;;6.28;3.08;;;8.90;93.10;;;;;;4875325;29;20777;-72
2022/02/23 09:00:18;;;;;;;4.78;2.63;;;9.00;91.30;;;;;;4862626;29;20607;-72
2022/02/23 09:02:45;;;;;;;6.97;2.97;;;9.00;88.90;;;;;;4862576;29;20774;-71
2022/02/23 09:05:12;;;;;;;9.68;3.47;;;9.10;87.60;;;;;;4862497;29;20624;-72
2022/02/23 09:07:38;;;;;;;7.97;3.50;;;9.10;86.20;;;;;;4862115;29;20212;-73
2022/02/23 09:10:06;;;;;;;3.75;3.00;;;9.10;84.80;;;;;;4861921;29;20312;-71
2022/02/23 09:12:33;;;;;;;4.93;2.50;;;9.10;83.60;;;;;;4861809;29;20276;-74
2022/02/23 09:15:02;;;;;;;4.80;2.80;;;9.20;82.50;;;;;;4862043;29;20313;-72
2022/02/23 09:17:29;;;;;;;5.35;2.42;;;9.30;80.90;;;;;;4861999;29;20215;-72
2022/02/23 09:19:57;;;;;;;3.65;2.67;;;9.40;79.60;;;;;;4861471;29;20227;-72
2022/02/23 09:22:24;;;;;;;6.70;2.47;;;9.50;78.70;;;;;;4861102;29;20248;-72
2022/02/23 09:24:53;;;;;;;5.18;2.47;;;9.50;76.80;;;;;;4861454;29;20219;-72
2022/02/23 09:27:20;;;;;;;3.67;2.85;;;9.50;76.30;;;;;;4862584;29;20215;-72
2022/02/23 09:29:46;;;;;;;3.47;2.33;;;9.60;74.90;;;;;;4862844;29;20225;-71
2022/02/23 09:32:15;;;;;;;7.43;2.42;;;9.70;72.70;;;;;;4862499;29;20244;-72
2022/02/23 09:34:42;;;;;;;7.28;3.10;;;9.70;71.10;;;;;;4862336;29;20286;-72
2022/02/23 09:37:09;;;;;;;5.78;2.45;;;9.60;71.90;;;;;;4862369;29;20216;-72
2022/02/23 09:39:36;;;;;;;10.18;3.67;;;9.70;72.70;;;;;;4862712;29;20216;-73
2022/02/23 09:42:04;;;;;;;5.65;2.55;;;9.80;71.40;;;;;;4861121;29;20240;-73
2022/02/23 09:44:31;;;;;;;3.05;2.20;;;10.00;69.30;;;;;;4861163;29;20219;-72
2022/02/23 09:47:00;;;;;;;6.57;2.53;;;10.20;67.80;;;;;;4860764;29;20688;-72
2022/02/23 09:49:30;;;;;;;6.13;2.55;;;10.40;67.40;;;;;;4861453;29;20214;-72
2022/02/23 09:51:58;;;;;;;4.47;2.10;;;10.50;65.10;;;;;;4860892;29;20302;-71
2022/02/23 09:54:24;;;;;;;3.38;2.28;;;10.60;65.60;;;;;;4860923;29;20331;-73
2022/02/23 09:56:51;;;;;;;5.30;2.53;;;10.70;63.80;;;;;;4861041;29;20221;-71
2022/02/23 09:59:18;;;;;;;9.35;3.10;;;10.50;63.10;;;;;;4860959;29;20219;-73
2022/02/23 10:01:46;;;;;;;5.45;2.88;;;10.40;63.80;;;;;;4861164;29;20217;-72
2022/02/23 10:04:13;;;;;;;3.58;2.10;;;10.30;65.10;;;;;;4866980;29;20310;-72
2022/02/23 10:06:42;;;;;;;4.22;2.30;;;10.30;64.30;;;;;;4869717;29;20233;-71
2022/02/23 10:09:12;;;;;;;6.10;3.17;;;10.30;63.40;;;;;;4874598;29;20216;-72
2022/02/23 10:11:41;;;;;;;9.23;2.72;;;10.30;63.40;;;;;;4876868;29;20230;-72
2022/02/23 10:14:11;;;;;;;3.90;2.40;;;10.30;63.40;;;;;;4876684;29;20281;-73
2022/02/23 10:16:40;;;;;;;7.55;2.35;;;10.40;64.20;;;;;;4868621;29;20220;-72
2022/02/23 10:19:09;;;;;;;5.70;2.90;;;10.50;62.30;;;;;;4862009;29;20232;-72
2022/02/23 10:21:55;;;;;;;9.50;3.60;;;10.50;62.70;;;;;;4861148;29;20304;-72
2022/02/23 10:24:29;;;;;;;6.95;2.75;;;10.70;62.80;;;;;;4861713;29;20239;-76
2022/02/23 10:27:04;;;;;;;18.73;3.92;;;10.80;61.40;;;;;;4861679;29;20224;-76
2022/02/23 10:29:34;;;;;;;6.78;3.03;;;10.70;60.50;;;;;;4860993;29;20305;-76
2022/02/23 10:32:02;;;;;;;4.32;2.85;;;10.70;61.00;;;;;;4860550;29;20301;-76
2022/02/23 10:34:30;;;;;;;5.30;2.35;;;10.70;60.10;;;;;;4861694;29;20584;-76
2022/02/23 10:37:07;;;;;;;5.78;2.70;;;10.80;59.40;;;;;;4861156;29;20315;-76
2022/02/23 10:39:40;;;;;;;9.95;2.75;;;10.80;59.80;;;;;;4862627;29;20202;-76
2022/02/23 10:42:09;;;;;;;7.50;2.67;;;10.90;59.50;;;;;;4864237;29;20621;-75
2022/02/23 10:44:39;;;;;;;4.35;2.33;;;11.10;57.60;;;;;;4865831;29;20248;-76
2022/02/23 10:47:07;;;;;;;7.10;2.80;;;11.10;56.50;;;;;;4876680;29;20201;-76
2022/02/23 10:49:34;;;;;;;6.10;2.50;;;11.00;56.80;;;;;;4879421;29;20634;-76
2022/02/23 10:52:06;;;;;;;3.22;2.25;;;10.80;57.00;;;;;;4880659;29;20221;-77
2022/02/23 10:54:36;;;;;;;7.40;3.15;;;10.90;58.20;;;;;;4881403;29;20255;-75
2022/02/23 10:57:18;;;;;;;5.25;2.42;;;11.30;55.80;;;;;;4879007;29;20229;-75
2022/02/23 10:59:45;;;;;;;5.68;3.00;;;11.50;55.30;;;;;;4877337;29;20234;-77
2022/02/23 11:02:13;;;;;;;4.13;2.72;;;11.60;55.50;;;;;;4868687;29;20248;-76
2022/02/23 11:04:40;;;;;;;4.05;2.17;;;11.90;54.10;;;;;;4864982;29;20296;-76
2022/02/23 11:07:08;;;;;;;3.13;1.92;;;11.90;51.00;;;;;;4868848;29;20213;-74
2022/02/23 11:09:36;;;;;;;4.05;1.80;;;12.00;50.30;;;;;;4868122;29;20232;-76
2022/02/23 11:12:05;;;;;;;4.75;2.50;;;12.10;50.00;;;;;;4877813;29;20244;-73
2022/02/23 11:14:35;;;;;;;4.07;1.98;;;12.20;48.00;;;;;;4870287;29;20260;-74
2022/02/23 11:17:03;;;;;;;5.55;2.05;;;12.20;45.90;;;;;;4878388;29;20210;-76
2022/02/23 11:19:32;;;;;;;5.13;2.20;;;12.20;48.10;;;;;;4865865;29;20219;-75
2022/02/23 11:22:03;;;;;;;8.43;2.35;;;12.00;48.90;;;;;;4873103;29;20253;-75
2022/02/23 11:24:30;;;;;;;3.90;1.52;;;12.10;47.80;;;;;;4876475;29;20231;-75
2022/02/23 11:27:04;;;;;;;5.90;1.63;;;12.20;48.20;;;;;;4870394;29;20277;-74
2022/02/23 11:29:38;;;;;;;6.18;1.95;;;12.20;45.60;;;;;;4866182;29;20241;-75
2022/02/23 11:32:08;;;;;;;3.63;1.70;;;12.30;45.30;;;;;;4865078;29;20292;-75
2022/02/23 11:34:39;;;;;;;4.18;2.00;;;12.30;45.70;;;;;;4866045;29;20233;-75
2022/02/23 11:37:11;;;;;;;4.10;2.25;;;12.40;45.30;;;;;;4865080;29;20269;-75
2022/02/23 11:39:38;;;;;;;3.88;1.90;;;12.50;46.10;;;;;;4864658;29;20217;-74
2022/02/23 11:42:10;;;;;;;5.75;1.88;;;12.60;45.70;;;;;;4867598;29;20260;-75
2022/02/23 11:44:46;;;;;;;5.10;2.03;;;12.50;45.70;;;;;;4867359;29;20257;-77
2022/02/23 11:47:16;;;;;;;8.43;2.30;;;12.50;46.10;;;;;;4866846;29;20255;-75
2022/02/23 11:50:04;;;;;;;5.20;2.25;;;12.50;45.10;;;;;;4865604;29;20476;-72
2022/02/23 11:55:17;;;;;;;4.25;1.92;;;12.50;45.60;;;;;;4868214;29;20239;-72
2022/02/23 11:58:05;;;;;;;3.38;1.92;;;12.60;45.30;;;;;;4868744;29;20726;-73
2022/02/23 12:00:58;;;;;;;3.35;2.08;;;12.60;44.70;;;;;;4868617;29;20272;-71
2022/02/23 12:03:28;;;;;;;5.03;1.73;;;12.50;43.90;;;;;;4873999;29;20591;-74
2022/02/23 12:05:59;;;;;;;4.93;1.80;;;12.40;43.50;;;;;;4874530;29;20209;-73
2022/02/23 12:08:43;;;;;;;4.00;2.03;;;12.40;43.20;;;;;;4871447;29;20278;-72
2022/02/23 12:11:39;;;;;;;4.03;1.58;;;12.40;42.30;;;;;;4879087;29;20205;-72
2022/02/23 12:14:07;;;;;;;7.05;1.63;;;12.30;41.60;;;;;;4879768;29;20237;-72
2022/02/23 12:16:49;;;;;;;2.28;1.42;;;12.10;42.80;;;;;;4873800;29;20220;-72
2022/02/23 12:19:17;;;;;;;7.70;2.08;;;12.20;43.50;;;;;;4864673;29;20218;-71
2022/02/23 12:21:46;;;;;;;2.83;1.90;;;12.40;41.70;;;;;;4863317;29;20210;-71
2022/02/23 12:24:15;;;;;;;7.65;2.33;;;12.50;41.50;;;;;;4863805;29;20666;-72
2022/02/23 12:26:42;;;;;;;5.43;2.10;;;12.60;40.70;;;;;;4861914;29;20269;-72
2022/02/23 12:29:12;;;;;;;3.45;1.40;;;12.70;40.10;;;;;;4862511;29;20591;-71
2022/02/23 12:31:44;;;;;;;2.28;1.50;;;12.70;39.00;;;;;;4862231;29;20217;-73
2022/02/23 12:34:14;;;;;;;4.78;1.63;;;12.70;38.80;;;;;;4863957;29;20260;-72
2022/02/23 12:36:46;;;;;;;5.93;2.03;;;12.70;40.00;;;;;;4863491;29;20612;-72
2022/02/23 12:39:14;;;;;;;5.90;1.85;;;12.70;38.90;;;;;;4864059;29;20344;-72
2022/02/23 12:41:42;;;;;;;3.80;1.73;;;12.80;38.50;;;;;;4863974;29;20209;-72
2022/02/23 12:44:13;;;;;;;4.75;2.10;;;12.90;39.60;;;;;;4864126;29;20213;-72
2022/02/23 12:46:43;;;;;;;2.70;2.13;;;12.90;39.30;;;;;;4863633;29;20201;-71
2022/02/23 12:49:11;;;;;;;3.95;2.13;;;13.00;39.80;;;;;;4863466;29;20202;-71
2022/02/23 12:51:40;;;;;;;6.40;1.83;;;13.10;39.80;;;;;;4863856;29;20690;-73
2022/02/23 12:54:09;;;;;;;3.90;1.45;;;13.30;39.80;;;;;;4863574;29;20237;-71
2022/02/23 12:56:38;;;;;;;2.22;1.48;;;13.10;38.00;;;;;;4863293;29;20240;-71
2022/02/23 12:59:07;;;;;;;4.65;2.00;;;13.00;38.10;;;;;;4863780;29;20213;-72
2022/02/23 13:01:38;;;;;;;3.97;1.85;;;12.90;38.00;;;;;;4862110;29;20586;-73
2022/02/23 13:04:07;;;;;;;5.38;1.70;;;12.90;38.00;;;;;;4862770;29;20248;-71
2022/02/23 13:06:35;;;;;;;6.88;1.70;;;13.00;37.60;;;;;;4863705;29;20266;-72